Lydia, South Carolina
Current Conditions -  °F | °C
As of 10:15 AM on Thursday 23 Oct 2014 (Local Time) from KHVS Reporting Station
Clear Clear  
Wind Chill: 59°   Ceiling: Unl
Heat Index: 59°   Visibility: 10mi
Dew Point: 25°   Wind: 12mph
Humidity: 27%   Direction: 360°N
Pressure: 30.09"   Gusts: 16mph
Location:  34.29°N, 80.11°W
Report Text: KHVS 231415Z AUTO 36010G14KT 10SM CLR 15/M04 A3009 RMK AO2
Loading
Personal Weather Stations






























Interactive Weather Map
Tropical Storm Tracking
New forecast layout! Learn more

10-Day Weather Forecast

Advertisements
Track Severe Weather on mobile